createdAt,value
2018-11-26T00:00:35.242Z,33.73
2018-11-26T00:03:04.967Z,32.57
2018-11-26T00:05:37.461Z,31.70
2018-11-26T00:08:08.124Z,31.80
2018-11-26T00:10:51.884Z,40.83
2018-11-26T00:13:21.306Z,34.20
2018-11-26T00:15:49.882Z,39.13
2018-11-26T00:18:19.250Z,35.03
2018-11-26T00:20:48.443Z,40.27
2018-11-26T00:23:17.618Z,40.30
2018-11-26T00:25:47.021Z,41.80
2018-11-26T00:28:16.068Z,53.23
2018-11-26T00:30:48.004Z,41.67
2018-11-26T00:33:17.668Z,50.90
2018-11-26T00:35:51.968Z,47.73
2018-11-26T00:38:20.655Z,47.47
2018-11-26T00:40:53.867Z,39.83
2018-11-26T00:43:22.731Z,49.03
2018-11-26T00:45:55.725Z,50.83
2018-11-26T00:48:24.315Z,35.87
2018-11-26T00:50:59.881Z,44.70
2018-11-26T00:53:28.992Z,50.23
2018-11-26T00:56:02.641Z,48.47
2018-11-26T00:58:31.716Z,39.63
2018-11-26T01:01:06.759Z,44.43
2018-11-26T01:03:36.159Z,45.93
2018-11-26T01:06:09.156Z,40.53
2018-11-26T01:08:37.739Z,40.57
2018-11-26T01:11:11.772Z,39.33
2018-11-26T01:13:40.802Z,35.90
2018-11-26T01:16:22.773Z,43.43
2018-11-26T01:18:51.708Z,57.90
2018-11-26T01:21:20.757Z,44.50
2018-11-26T01:23:49.496Z,36.17
2018-11-26T01:26:18.562Z,44.53
2018-11-26T01:28:47.638Z,39.70
2018-11-26T01:31:21.200Z,34.83
2018-11-26T01:33:50.868Z,38.57
2018-11-26T01:36:32.135Z,40.37
2018-11-26T01:39:01.051Z,37.43
2018-11-26T01:41:30.832Z,39.80
2018-11-26T01:43:59.412Z,40.63
2018-11-26T01:46:28.753Z,43.57
2018-11-26T01:48:57.315Z,36.47
2018-11-26T01:51:32.883Z,39.43
2018-11-26T01:54:02.217Z,38.60
2018-11-26T01:56:34.435Z,37.53
2018-11-26T01:59:03.478Z,41.53
2018-11-26T02:01:34.596Z,41.30
2018-11-26T02:04:03.203Z,46.53
2018-11-26T02:06:39.145Z,45.10
2018-11-26T02:09:08.020Z,39.53
2018-11-26T02:11:40.766Z,42.87
2018-11-26T02:14:09.855Z,42.60
2018-11-26T02:16:51.690Z,40.13
2018-11-26T02:19:20.740Z,41.00
2018-11-26T02:21:49.695Z,47.73
2018-11-26T02:24:18.571Z,41.73
2018-11-26T02:26:48.192Z,39.87
2018-11-26T02:29:17.236Z,43.77
2018-11-26T02:31:50.772Z,44.40
2018-11-26T02:34:19.824Z,39.33
2018-11-26T02:36:52.356Z,46.80
2018-11-26T02:39:21.403Z,42.63
2018-11-26T02:41:56.718Z,52.10
2018-11-26T02:44:25.575Z,45.57
2018-11-26T02:47:00.605Z,43.13
2018-11-26T02:49:29.327Z,46.97
2018-11-26T02:52:01.492Z,45.07
2018-11-26T02:54:30.496Z,48.43
2018-11-26T02:57:04.400Z,45.87
2018-11-26T02:59:33.516Z,47.10
2018-11-26T03:02:08.319Z,43.27
2018-11-26T03:04:37.179Z,43.07
2018-11-26T03:07:10.819Z,46.97
2018-11-26T03:09:39.567Z,47.77
2018-11-26T03:12:13.855Z,47.07
2018-11-26T03:14:42.722Z,46.13
2018-11-26T03:17:16.636Z,51.60
2018-11-26T03:19:45.940Z,52.97
2018-11-26T03:22:19.201Z,42.13
2018-11-26T03:24:48.236Z,48.67
2018-11-26T03:27:21.192Z,47.57
2018-11-26T03:29:50.067Z,43.27
2018-11-26T03:32:31.336Z,51.83
2018-11-26T03:35:00.382Z,50.13
2018-11-26T03:37:28.966Z,49.77
2018-11-26T03:39:57.811Z,70.70
2018-11-26T03:42:27.754Z,53.97
2018-11-26T03:44:56.792Z,48.57
2018-11-26T03:47:37.738Z,52.13
2018-11-26T03:50:06.351Z,52.70
2018-11-26T03:52:35.440Z,53.43
2018-11-26T03:55:05.000Z,50.87
2018-11-26T03:57:35.808Z,53.03
2018-11-26T04:00:05.381Z,46.20
2018-11-26T04:02:37.338Z,53.10
2018-11-26T04:05:07.532Z,47.93
2018-11-26T04:07:40.349Z,49.00
2018-11-26T04:10:10.416Z,47.60
2018-11-26T04:12:42.945Z,57.23
2018-11-26T04:15:13.716Z,63.00
2018-11-26T04:17:46.692Z,71.03
2018-11-26T04:20:15.323Z,58.07
2018-11-26T04:22:57.060Z,55.50
2018-11-26T04:25:26.394Z,64.63
2018-11-26T04:30:27.602Z,61.47
2018-11-26T04:32:56.459Z,60.83
2018-11-26T04:35:25.181Z,54.90
2018-11-26T04:37:57.728Z,56.70
2018-11-26T04:40:26.663Z,56.57
2018-11-26T04:42:59.073Z,55.60
2018-11-26T04:45:27.767Z,59.73
2018-11-26T04:48:00.909Z,55.60
2018-11-26T04:50:29.582Z,53.70
2018-11-26T04:53:03.166Z,53.10
2018-11-26T04:55:32.522Z,57.93
2018-11-26T04:58:01.381Z,58.40
2018-11-26T05:00:31.216Z,58.53
2018-11-26T05:03:00.572Z,54.63
2018-11-26T05:05:29.652Z,54.83
2018-11-26T05:07:58.225Z,60.30
2018-11-26T05:10:27.083Z,58.30
2018-11-26T05:12:56.136Z,58.47
2018-11-26T05:15:24.731Z,60.27
2018-11-26T05:17:53.592Z,51.97
2018-11-26T05:20:22.199Z,52.53
2018-11-26T05:22:51.998Z,53.90
2018-11-26T05:25:22.016Z,55.03
2018-11-26T05:27:51.124Z,57.83
2018-11-26T05:30:23.133Z,60.50
2018-11-26T05:32:52.228Z,50.00
2018-11-26T05:35:24.768Z,50.77
2018-11-26T05:37:53.350Z,56.33
2018-11-26T05:40:26.909Z,50.57
2018-11-26T05:42:55.575Z,55.53
2018-11-26T05:45:24.256Z,53.07
2018-11-26T05:47:54.977Z,54.13
2018-11-26T05:50:23.603Z,54.53
2018-11-26T05:52:52.581Z,53.30
2018-11-26T05:55:21.988Z,65.10
2018-11-26T05:57:50.911Z,75.83
2018-11-26T06:00:37.025Z,64.23
2018-11-26T06:03:06.199Z,71.80
2018-11-26T06:05:37.888Z,66.30
2018-11-26T06:08:07.120Z,60.50
2018-11-26T06:10:35.983Z,59.43
2018-11-26T06:13:05.425Z,53.13
2018-11-26T06:15:34.140Z,60.33
2018-11-26T06:18:03.147Z,60.90
2018-11-26T06:20:31.743Z,54.23
2018-11-26T06:23:00.362Z,62.13
2018-11-26T06:25:29.220Z,59.03
2018-11-26T06:27:57.820Z,55.67
2018-11-26T06:30:26.982Z,57.97
2018-11-26T06:32:59.201Z,57.97
2018-11-26T06:35:27.795Z,61.03
2018-11-26T06:38:00.921Z,52.70
2018-11-26T06:40:30.401Z,75.57
2018-11-26T06:43:03.412Z,66.20
2018-11-26T06:45:32.016Z,64.17
2018-11-26T06:48:06.520Z,55.33
2018-11-26T06:50:35.827Z,57.07
2018-11-26T06:53:10.409Z,58.23
2018-11-26T06:55:39.970Z,54.07
2018-11-26T06:58:12.150Z,60.67
2018-11-26T07:00:40.947Z,62.53
2018-11-26T07:03:13.307Z,65.87
2018-11-26T07:05:41.948Z,59.17
2018-11-26T07:08:15.772Z,58.27
2018-11-26T07:10:44.676Z,60.50
2018-11-26T07:13:17.587Z,60.37
2018-11-26T07:15:46.652Z,56.13
2018-11-26T07:18:20.743Z,62.87
2018-11-26T07:20:50.886Z,54.63
2018-11-26T07:23:23.863Z,57.87
2018-11-26T07:25:52.767Z,63.13
2018-11-26T07:28:27.149Z,60.57
2018-11-26T07:30:56.714Z,60.60
2018-11-26T07:33:30.472Z,69.73
2018-11-26T07:35:59.116Z,66.07
2018-11-26T07:38:32.778Z,67.10
2018-11-26T07:41:01.697Z,62.67
2018-11-26T07:43:43.874Z,62.77
2018-11-26T07:46:12.775Z,63.37
2018-11-26T07:48:41.486Z,65.00
2018-11-26T07:51:10.589Z,64.73
2018-11-26T07:55:06.691Z,64.17
2018-11-26T07:57:42.242Z,62.47
2018-11-26T08:27:23.648Z,61.63
2018-11-26T08:29:56.577Z,57.83
2018-11-26T08:32:34.041Z,52.27
2018-11-26T08:34:59.840Z,58.33
2018-11-26T08:37:33.724Z,65.80
2018-11-26T08:40:08.759Z,59.17
2018-11-26T08:42:45.798Z,57.43
2018-11-26T08:45:25.176Z,57.03
2018-11-26T08:48:57.345Z,50.90
2018-11-26T08:51:26.913Z,54.90
2018-11-26T08:53:55.727Z,56.30
2018-11-26T08:56:24.387Z,62.30
2018-11-26T08:58:53.404Z,57.07
2018-11-26T09:01:27.924Z,60.53
2018-11-26T09:03:57.603Z,58.60
2018-11-26T09:06:27.008Z,66.13
2018-11-26T09:08:55.627Z,58.77
2018-11-26T09:11:24.245Z,63.20
2018-11-26T09:13:54.687Z,55.77
2018-11-26T09:16:23.726Z,55.07
2018-11-26T09:18:53.226Z,57.53
2018-11-26T09:21:25.623Z,56.17
2018-11-26T09:23:54.324Z,51.93
2018-11-26T09:26:26.771Z,53.23
2018-11-26T09:28:56.482Z,50.70
2018-11-26T09:31:32.519Z,55.87
2018-11-26T09:34:01.008Z,56.87
2018-11-26T09:36:33.527Z,53.07
2018-11-26T09:39:02.618Z,50.43
2018-11-26T09:41:34.740Z,51.83
2018-11-26T09:44:04.216Z,51.03
2018-11-26T09:46:45.527Z,51.50
2018-11-26T09:49:15.215Z,56.40
2018-11-26T09:51:44.274Z,48.93
2018-11-26T09:54:13.010Z,52.47
2018-11-26T09:56:42.209Z,54.43
2018-11-26T09:59:11.566Z,57.37
2018-11-26T10:01:44.759Z,53.40
2018-11-26T10:04:16.032Z,48.53
2018-11-26T10:06:48.212Z,53.73
2018-11-26T10:09:16.803Z,50.90
2018-11-26T10:11:49.486Z,53.87
2018-11-26T10:14:18.972Z,54.07
2018-11-26T10:16:56.049Z,48.50
2018-11-26T10:19:25.655Z,50.83
2018-11-26T10:21:56.820Z,53.20
2018-11-26T10:24:26.513Z,52.90
2018-11-26T10:26:58.595Z,51.40
2018-11-26T10:29:28.095Z,56.47
2018-11-26T10:32:10.985Z,50.97
2018-11-26T10:34:40.321Z,52.40
2018-11-26T10:37:09.453Z,47.20
2018-11-26T10:39:38.541Z,50.07
2018-11-26T10:42:09.637Z,56.43
2018-11-26T10:44:38.776Z,58.67
2018-11-26T10:47:11.381Z,50.00
2018-11-26T10:49:40.008Z,50.60
2018-11-26T10:52:12.617Z,57.03
2018-11-26T10:54:45.734Z,51.57
2018-11-26T10:57:17.925Z,48.67
2018-11-26T10:59:46.569Z,51.13
2018-11-26T11:02:24.500Z,48.17
2018-11-26T11:04:53.527Z,50.13
2018-11-26T11:07:22.756Z,52.43
2018-11-26T11:09:51.572Z,54.90
2018-11-26T11:12:23.981Z,51.47
2018-11-26T11:14:54.025Z,53.87
2018-11-26T11:17:24.922Z,49.03
2018-11-26T11:19:53.565Z,46.53
2018-11-26T11:22:27.002Z,51.90
2018-11-26T11:25:00.160Z,50.43
2018-11-26T11:27:32.056Z,53.00
2018-11-26T11:30:02.243Z,54.07
2018-11-26T11:32:34.002Z,52.57
2018-11-26T11:35:03.621Z,48.37
2018-11-26T11:37:37.166Z,51.10
2018-11-26T11:40:13.925Z,53.17
2018-11-26T11:42:43.345Z,51.27
2018-11-26T11:45:14.442Z,46.53
2018-11-26T11:47:44.100Z,50.13
2018-11-26T11:50:13.513Z,49.87
2018-11-26T11:52:43.129Z,50.90
2018-11-26T11:55:14.671Z,45.23
2018-11-26T11:57:47.569Z,45.60
2018-11-26T12:00:44.931Z,48.13
2018-11-26T12:03:14.972Z,48.43
2018-11-26T12:05:49.423Z,50.70
2018-11-26T12:08:18.015Z,52.37
2018-11-26T12:10:51.771Z,52.23
2018-11-26T12:13:20.773Z,54.97
2018-11-26T12:15:58.214Z,52.47
2018-11-26T12:18:27.325Z,51.90
2018-11-26T12:20:58.912Z,50.83
2018-11-26T12:23:28.533Z,52.73
2018-11-26T12:28:19.992Z,49.17
2018-11-26T12:30:49.110Z,53.03
2018-11-26T12:33:18.214Z,47.93
2018-11-26T12:35:47.086Z,53.27
2018-11-26T12:38:16.234Z,57.77
2018-11-26T12:40:45.523Z,63.37
2018-11-26T12:43:15.376Z,53.47
2018-11-26T12:45:44.361Z,55.43
2018-11-26T12:48:16.945Z,58.57
2018-11-26T12:50:47.995Z,51.10
2018-11-26T12:53:18.521Z,50.40
2018-11-26T12:55:48.160Z,47.67
2018-11-26T12:58:20.466Z,50.40
2018-11-26T13:00:51.161Z,51.60
2018-11-26T13:03:22.221Z,44.80
2018-11-26T13:05:52.534Z,52.83
2018-11-26T13:08:24.717Z,52.03
2018-11-26T13:10:53.673Z,52.20
2018-11-26T13:13:35.146Z,54.07
2018-11-26T13:16:05.714Z,48.20
2018-11-26T13:18:34.373Z,47.70
2018-11-26T13:21:03.446Z,48.43
2018-11-26T13:23:32.948Z,47.37
2018-11-26T13:26:02.053Z,47.43
2018-11-26T13:28:45.159Z,45.93
2018-11-26T13:31:14.979Z,50.60
2018-11-26T13:33:44.101Z,59.27
2018-11-26T13:36:12.692Z,51.40
2018-11-26T13:38:42.481Z,49.20
2018-11-26T13:41:11.691Z,50.97
2018-11-26T13:43:43.064Z,48.03
2018-11-26T13:46:11.985Z,47.33
2018-11-26T13:48:45.830Z,50.90
2018-11-26T13:51:15.116Z,46.07
2018-11-26T13:53:47.562Z,49.33
2018-11-26T13:56:16.324Z,51.10
2018-11-26T13:58:49.498Z,50.27
2018-11-26T14:01:19.284Z,45.47
2018-11-26T14:03:52.273Z,54.93
2018-11-26T14:06:22.972Z,53.57
2018-11-26T14:08:57.890Z,49.57
2018-11-26T14:11:28.616Z,50.33
2018-11-26T14:14:00.541Z,44.50
2018-11-26T14:16:30.410Z,43.33
2018-11-26T14:19:03.574Z,50.10
2018-11-26T14:21:32.907Z,45.00
2018-11-26T14:24:08.822Z,49.67
2018-11-26T14:26:38.150Z,50.60
2018-11-26T14:29:10.592Z,51.60
2018-11-26T14:31:39.934Z,45.47
2018-11-26T14:34:21.142Z,46.47
2018-11-26T14:36:50.493Z,48.17
2018-11-26T14:39:19.403Z,50.53
2018-11-26T14:41:49.526Z,49.17
2018-11-26T14:44:18.467Z,54.30
2018-11-26T14:46:47.073Z,48.43
2018-11-26T14:49:20.641Z,50.90
2018-11-26T14:51:49.726Z,49.60
2018-11-26T14:54:21.885Z,49.73
2018-11-26T14:56:51.002Z,54.87
2018-11-26T14:59:25.538Z,53.23
2018-11-26T15:01:54.205Z,50.03
2018-11-26T15:04:26.889Z,47.33
2018-11-26T15:06:57.067Z,47.77
2018-11-26T15:09:29.768Z,48.60
2018-11-26T15:11:58.456Z,50.17
2018-11-26T15:14:40.102Z,50.57
2018-11-26T15:17:08.940Z,56.73
2018-11-26T15:19:39.217Z,57.20
2018-11-26T15:22:08.285Z,53.47
2018-11-26T15:24:37.746Z,55.13
2018-11-26T15:27:06.600Z,62.13
2018-11-26T15:29:39.824Z,59.53
2018-11-26T15:32:08.946Z,47.80
2018-11-26T15:34:42.413Z,54.47
2018-11-26T15:37:11.025Z,58.53
2018-11-26T15:39:47.216Z,53.43
2018-11-26T15:42:16.237Z,58.80
2018-11-26T15:44:48.194Z,63.10
2018-11-26T15:47:17.444Z,58.07
2018-11-26T15:49:49.482Z,61.17
2018-11-26T15:52:18.202Z,68.47
2018-11-26T15:55:00.803Z,59.63
2018-11-26T15:57:29.680Z,60.03
2018-11-26T16:02:37.758Z,53.17
2018-11-26T16:05:07.371Z,56.73
2018-11-26T16:07:37.383Z,57.13
2018-11-26T16:10:07.164Z,52.60
2018-11-26T16:12:36.836Z,58.37
2018-11-26T16:15:07.808Z,52.77
2018-11-26T16:17:36.878Z,55.53
2018-11-26T16:20:09.805Z,55.87
2018-11-26T16:22:39.575Z,61.43
2018-11-26T16:25:14.545Z,78.80
2018-11-26T16:27:44.310Z,68.27
2018-11-26T16:30:13.788Z,70.13
2018-11-26T16:32:44.032Z,70.37
2018-11-26T16:35:16.693Z,60.10
2018-11-26T16:37:45.774Z,60.33
2018-11-26T16:40:17.791Z,62.60
2018-11-26T16:42:46.792Z,59.13
2018-11-26T16:45:22.538Z,60.00
2018-11-26T16:47:51.684Z,53.50
2018-11-26T16:50:23.625Z,64.03
2018-11-26T16:53:05.492Z,62.37
2018-11-26T16:55:38.782Z,61.30
2018-11-26T16:58:07.397Z,57.63
2018-11-26T17:00:37.462Z,60.47
2018-11-26T17:03:07.845Z,68.30
2018-11-26T17:05:39.127Z,68.87
2018-11-26T17:08:08.901Z,68.80
2018-11-26T17:10:39.227Z,64.97
2018-11-26T17:13:12.956Z,64.93
2018-11-26T17:18:05.896Z,58.80
2018-11-26T17:20:36.961Z,61.57
2018-11-26T17:23:07.609Z,71.97
2018-11-26T17:25:40.845Z,58.27
2018-11-26T17:28:10.725Z,63.27
2018-11-26T17:30:42.642Z,64.60
2018-11-26T17:33:12.725Z,58.87
2018-11-26T17:35:44.530Z,69.47
2018-11-26T17:38:13.650Z,68.23
2018-11-26T17:40:49.338Z,63.03
2018-11-26T17:43:18.417Z,74.27
2018-11-26T17:45:52.114Z,64.33
2018-11-26T17:48:21.645Z,64.40
2018-11-26T17:50:54.575Z,67.07
2018-11-26T17:53:23.177Z,63.67
2018-11-26T17:55:56.706Z,68.07
2018-11-26T17:58:25.954Z,78.47
2018-11-26T18:01:03.072Z,69.17
2018-11-26T18:03:32.565Z,72.13
2018-11-26T18:06:01.305Z,61.67
2018-11-26T18:08:30.361Z,70.23
2018-11-26T18:11:05.970Z,69.37
2018-11-26T18:13:34.601Z,64.57
2018-11-26T18:16:07.833Z,75.07
2018-11-26T18:18:37.686Z,79.27
2018-11-26T18:21:13.301Z,74.13
2018-11-26T18:23:42.371Z,62.20
2018-11-26T18:26:13.980Z,71.07
2018-11-26T18:28:43.190Z,63.87
2018-11-26T18:31:15.300Z,59.33
2018-11-26T18:33:44.182Z,59.87
2018-11-26T18:36:18.870Z,61.33
2018-11-26T18:38:48.757Z,67.50
2018-11-26T18:41:20.289Z,50.67
2018-11-26T18:43:49.141Z,62.23
2018-11-26T18:46:23.508Z,59.77
2018-11-26T18:48:53.749Z,63.80
2018-11-26T18:51:25.741Z,67.47
2018-11-26T18:53:56.907Z,67.67
2018-11-26T18:56:29.649Z,62.93
2018-11-26T18:58:58.779Z,63.33
2018-11-26T19:01:30.670Z,64.67
2018-11-26T19:03:59.397Z,64.60
2018-11-26T19:06:34.337Z,59.93
2018-11-26T19:09:03.121Z,58.77
2018-11-26T19:11:39.482Z,59.87
2018-11-26T19:14:12.112Z,72.00
2018-11-26T19:16:42.592Z,69.00
2018-11-26T19:19:11.663Z,58.20
2018-11-26T19:21:43.206Z,64.60
2018-11-26T19:24:12.467Z,57.27
2018-11-26T19:26:45.122Z,72.03
2018-11-26T19:29:13.776Z,66.17
2018-11-26T19:31:46.727Z,62.33
2018-11-26T19:34:15.677Z,63.17
2018-11-26T19:36:49.183Z,67.27
2018-11-26T19:39:18.316Z,60.53
2018-11-26T19:41:52.961Z,60.60
2018-11-26T19:44:21.917Z,63.23
2018-11-26T19:46:55.892Z,62.33
2018-11-26T19:49:24.802Z,61.70
2018-11-26T19:51:58.016Z,67.23
2018-11-26T19:54:27.336Z,54.93
2018-11-26T19:57:02.248Z,68.43
2018-11-26T19:59:32.417Z,69.50
2018-11-26T20:02:04.361Z,70.10
2018-11-26T20:04:35.773Z,73.20
2018-11-26T20:07:07.021Z,69.03
2018-11-26T20:09:35.641Z,71.97
2018-11-26T20:12:09.921Z,67.77
2018-11-26T20:14:38.546Z,75.73
2018-11-26T20:17:11.496Z,66.80
2018-11-26T20:19:41.139Z,70.37
2018-11-26T20:22:17.567Z,72.50
2018-11-26T20:24:48.122Z,72.70
2018-11-26T20:27:18.551Z,71.17
2018-11-26T20:29:48.037Z,70.30
2018-11-26T20:32:19.952Z,71.50
2018-11-26T20:34:49.645Z,70.13
2018-11-26T20:37:31.364Z,72.40
2018-11-26T20:40:01.362Z,70.87
2018-11-26T20:42:31.719Z,73.43
2018-11-26T20:45:01.409Z,75.40
2018-11-26T20:47:30.535Z,66.43
2018-11-26T20:49:59.836Z,66.63
2018-11-26T20:52:31.160Z,70.07
2018-11-26T20:54:59.752Z,71.77
2018-11-26T20:57:32.703Z,70.47
2018-11-26T21:00:01.645Z,69.10
2018-11-26T21:02:34.513Z,73.43
2018-11-26T21:05:05.044Z,77.23
2018-11-26T21:07:36.799Z,79.03
2018-11-26T21:10:08.157Z,78.03
2018-11-26T21:12:44.309Z,86.40
2018-11-26T21:15:15.621Z,78.47
2018-11-26T21:17:48.177Z,79.57
2018-11-26T21:20:54.968Z,84.80
2018-11-26T21:23:26.590Z,69.47
2018-11-26T21:25:57.288Z,73.57
2018-11-26T21:28:26.369Z,76.43
2018-11-26T21:30:55.871Z,76.63
2018-11-26T21:33:24.876Z,73.47
2018-11-26T21:35:54.640Z,74.47
2018-11-26T21:38:23.790Z,69.83
2018-11-26T21:40:54.348Z,73.67
2018-11-26T21:43:23.469Z,74.83
2018-11-26T21:46:00.162Z,74.83
2018-11-26T21:48:29.641Z,79.70
2018-11-26T21:50:59.960Z,89.80
2018-11-26T21:53:29.609Z,80.27
2018-11-26T21:56:12.317Z,81.90
2018-11-26T21:58:41.546Z,87.43
2018-11-26T22:01:10.437Z,95.90
2018-11-26T22:03:41.139Z,85.77
2018-11-26T22:06:10.445Z,98.83
2018-11-26T22:08:39.492Z,92.80
2018-11-26T22:11:12.020Z,82.50
2018-11-26T22:13:40.601Z,105.67
2018-11-26T22:16:13.145Z,80.47
2018-11-26T22:18:42.156Z,78.87
2018-11-26T22:21:15.661Z,83.83
2018-11-26T22:23:47.721Z,76.03
2018-11-26T22:26:20.826Z,80.87
2018-11-26T22:28:50.584Z,75.07
2018-11-26T22:31:21.059Z,77.70
2018-11-26T22:33:50.829Z,75.03
2018-11-26T22:36:22.844Z,76.10
2018-11-26T22:38:52.026Z,80.70
2018-11-26T22:41:26.025Z,77.13
2018-11-26T22:43:54.604Z,78.23
2018-11-26T22:46:27.554Z,89.13
2018-11-26T22:48:57.020Z,72.37
2018-11-26T22:51:29.996Z,92.33
2018-11-26T22:53:59.036Z,82.70
2018-11-26T22:56:34.977Z,73.93
2018-11-26T22:59:04.459Z,79.70
2018-11-26T23:01:35.415Z,86.63
2018-11-26T23:04:04.036Z,94.63
2018-11-26T23:06:40.442Z,78.03
2018-11-26T23:09:10.281Z,77.53
2018-11-26T23:11:40.229Z,79.60
2018-11-26T23:14:09.641Z,79.17
2018-11-26T23:16:42.680Z,74.83
2018-11-26T23:19:11.266Z,82.00
2018-11-26T23:21:43.813Z,75.47
2018-11-26T23:24:13.285Z,73.23
2018-11-26T23:26:46.653Z,83.40
2018-11-26T23:29:15.936Z,78.07
2018-11-26T23:36:20.027Z,70.57
2018-11-26T23:38:55.189Z,74.33
2018-11-26T23:41:23.797Z,78.40
2018-11-26T23:43:59.251Z,76.97
2018-11-26T23:46:28.728Z,83.43
2018-11-26T23:49:00.511Z,87.13
2018-11-26T23:51:29.879Z,84.33
2018-11-26T23:54:03.129Z,86.73
2018-11-26T23:56:32.454Z,82.33
2018-11-26T23:59:06.754Z,78.30
